Latest Weather Observations for Pound Creek

IDV60801

Issued at 8:32 am EST Sunday 31 July 2016 (issued every 30 minutes, with the page automatically refreshed every 10 minutes)

About weather observations | Map of weather stations | Latest weather observations for VIC | Other Formats
Station Details ID: 085099 Name: POUND CREEK Lat: -38.63 Lon: 145.81 Height: 3.0 m
Data from the previous 72 hours. | See also: Recent months at Pound Creek
Date/Time
EST
Temp
°C
App
Temp
°C
Dew
Point
°C
Rel
Hum
%
Delta-T
°C
Wind Press
QNH
hPa
Press
MSL
hPa
Rain since
9am
mm
Dir  Spd
km/h
Gust
km/h
Spd
kts
Gust
kts
31/08:30am 11.2 8.1 8.8 85 1.2 NW 15 22 8 12 1015.0 1015.0 1.0
31/08:00am 10.7 7.5 8.6 87 1.0 NW 15 24 8 13 1014.6 1014.6 1.0
31/07:30am 10.5 7.3 8.4 87 1.0 NW 15 26 8 14 1014.1 1014.1 1.0
31/07:00am 10.4 7.2 8.3 87 1.0 NW 15 24 8 13 1013.7 1013.7 1.0
31/06:30am 10.7 6.8 8.5 86 1.1 NW 19 32 10 17 1013.3 1013.3 1.0
31/06:00am 10.8 6.9 8.7 87 1.0 NW 19 30 10 16 1013.1 1013.1 1.0
31/05:30am 11.0 6.9 8.6 85 1.2 NW 20 37 11 20 1012.8 1012.8 1.0
31/05:00am 11.1 6.6 8.5 84 1.3 NW 22 39 12 21 1012.4 1012.4 1.0
31/04:30am 11.3 6.8 8.7 84 1.3 NW 22 37 12 20 1012.2 1012.2 1.0
31/04:00am 11.0 7.0 8.9 87 1.0 NW 20 33 11 18 1011.9 1011.9 0.8
31/03:30am 11.3 6.1 8.7 84 1.3 NW 26 46 14 25 1011.5 1011.5 0.6
31/03:00am 11.9 7.0 8.4 79 1.7 NW 24 39 13 21 1011.5 1011.5 0.2
31/02:30am 12.7 7.1 7.2 69 2.7 NNW 26 44 14 24 1011.3 1011.3 0.0
31/02:00am 12.7 7.1 7.2 69 2.7 NW 26 43 14 23 1011.3 1011.3 0.0
31/01:31am 12.9 6.9 6.9 67 2.9 NNW 28 48 15 26 1011.3 1011.3 0.0
31/01:30am 12.9 7.2 6.9 67 2.9 NNW 26 41 14 22 1011.3 1011.3 0.0
31/01:00am 13.1 7.1 6.9 66 3.0 NNW 28 43 15 23 1011.7 1011.7 0.0
31/12:30am 13.2 7.1 6.5 64 3.2 NNW 28 48 15 26 1011.7 1011.7 0.0
31/12:00am 13.4 5.9 6.5 63 3.3 NNW 35 54 19 29 1011.3 1011.3 0.0
 
Date/Time
EST
Temp
°C
App
Temp
°C
Dew
Point
°C
Rel
Hum
%
Delta-T
°C
Wind Press
QNH
hPa
Press
MSL
hPa
Rain since
9am
mm
Dir  Spd
km/h
Gust
km/h
Spd
kts
Gust
kts
30/11:36pm 13.1 6.6 6.5 64 3.2 NNW 30 50 16 27 1011.4 1011.4 0.0
30/11:30pm 13.0 6.5 6.4 64 3.1 NNW 30 48 16 26 1011.4 1011.4 0.0
30/11:05pm 12.9 6.8 6.5 65 3.1 NNW 28 54 15 29 1011.6 1011.6 0.0
30/11:00pm 12.7 5.8 6.5 66 3.0 NNW 32 46 17 25 1011.7 1011.7 0.0
30/10:30pm 12.8 6.4 6.8 67 2.9 NNW 30 50 16 27 1012.1 1012.1 0.0
30/10:26pm 12.7 6.7 7.0 68 2.7 NNW 28 50 15 27 1012.2 1012.2 0.0
30/10:00pm 12.8 7.4 6.4 65 3.0 NNW 24 39 13 21 1012.4 1012.4 0.0
30/09:30pm 12.8 8.2 6.4 65 3.0 NNW 20 33 11 18 1012.8 1012.8 0.0
30/09:00pm 12.8 7.1 6.6 66 3.0 NNW 26 43 14 23 1012.5 1012.5 0.0
30/08:30pm 12.7 8.1 6.5 66 3.0 NNW 20 35 11 19 1012.7 1012.7 0.0
30/08:00pm 12.6 8.2 6.6 67 2.9 NNW 19 30 10 16 1013.0 1013.0 0.0
30/07:30pm 12.5 7.9 6.5 67 2.9 NNW 20 39 11 21 1013.3 1013.3 0.0
30/07:00pm 12.3 9.1 6.8 69 2.6 NNW 13 24 7 13 1013.6 1013.6 0.0
30/06:30pm 12.5 8.9 6.8 68 2.7 NNW 15 32 8 17 1013.7 1013.7 0.0
30/06:00pm 12.5 9.3 7.0 69 2.6 NW 13 20 7 11 1014.0 1014.0 0.0
30/05:30pm 12.8 10.1 7.5 70 2.6 NNW 11 19 6 10 1014.0 1014.0 0.0
30/05:00pm 13.2 10.1 7.4 68 2.8 NNW 13 22 7 12 1014.3 1014.3 0.0
30/04:30pm 13.8 10.9 8.0 68 2.9 NNW 13 24 7 13 1014.2 1014.2 0.0
30/04:00pm 14.2 10.5 7.9 66 3.1 NNW 17 28 9 15 1014.3 1014.3 0.0
30/03:30pm 15.2 11.3 8.7 65 3.3 NNW 19 33 10 18 1014.7 1014.7 0.0
30/03:00pm 14.7 12.0 8.9 68 2.9 NNW 13 22 7 12 1014.9 1014.9 0.0
30/02:30pm 14.2 10.2 8.4 68 2.9 NNW 19 28 10 15 1015.0 1015.0 0.0
30/02:00pm 14.6 10.6 8.1 65 3.2 NNW 19 35 10 19 1015.8 1015.8 0.0
30/01:30pm 14.6 10.6 8.3 66 3.2 NNW 19 32 10 17 1016.7 1016.7 0.0
30/01:00pm 14.1 10.6 8.7 70 2.7 NW 17 30 9 16 1017.5 1017.5 0.0
30/12:30pm 14.1 10.2 8.5 69 2.8 NNW 19 30 10 16 1017.9 1017.9 0.0
30/12:00pm 14.1 11.0 8.9 71 2.6 NNW 15 28 8 15 1018.2 1018.2 0.0
30/11:30am 14.7 11.8 9.5 71 2.7 NNW 15 22 8 12 1018.7 1018.7 0.0
30/11:00am 14.1 11.5 9.3 73 2.4 NNW 13 22 7 12 1019.5 1019.5 0.0
30/10:30am 13.5 10.9 9.4 76 2.1 NW 13 19 7 10 1020.1 1020.1 0.0
30/10:00am 12.5 9.8 9.1 80 1.7 NNW 13 20 7 11 1020.3 1020.3 0.0
30/09:30am 10.9 10.0 9.3 90 0.8 N 4 6 2 3 1020.4 1020.4 0.0
30/09:00am 10.2 8.8 8.8 91 0.7 W 6 7 3 4 1020.7 1020.7 1.0
30/08:30am 9.9 8.5 8.8 93 0.5 NNW 6 9 3 5 1020.6 1020.6 1.0
30/08:00am 8.5 6.2 7.6 94 0.4 N 9 11 5 6 1020.6 1020.6 1.0
30/07:30am 8.0 5.6 7.2 95 0.4 N 9 9 5 5 1020.8 1020.8 1.0
30/07:00am 8.0 5.6 7.2 95 0.4 N 9 15 5 8 1020.8 1020.8 1.0
30/06:30am 8.1 6.1 7.2 94 0.4 N 7 9 4 5 1020.9 1020.9 1.0
30/06:00am 8.9 7.1 8.0 94 0.4 NNW 7 11 4 6 1020.9 1020.9 1.0
30/05:30am 9.1 7.0 8.2 94 0.4 NNW 9 11 5 6 1020.7 1020.7 1.0
30/05:00am 8.5 6.6 7.7 95 0.4 NNW 7 9 4 5 1020.6 1020.6 1.0
30/04:30am 8.9 6.7 8.0 94 0.4 NNW 9 11 5 6 1020.5 1020.5 1.0
30/04:00am 9.4 7.7 8.5 94 0.4 NNW 7 9 4 5 1020.6 1020.6 1.0
30/03:30am 9.9 8.9 8.8 93 0.5 NW 4 6 2 3 1020.6 1020.6 1.0
30/03:00am 10.3 9.0 9.2 93 0.5 NW 6 9 3 5 1020.8 1020.8 1.0
30/02:30am 10.2 8.8 9.0 92 0.6 NW 6 11 3 6 1021.0 1021.0 1.0
30/02:00am 10.4 8.5 9.0 91 0.7 NW 9 13 5 7 1021.1 1021.1 1.0
30/01:30am 10.1 8.2 8.9 92 0.6 NW 9 13 5 7 1021.0 1021.0 1.0
30/01:00am 10.3 8.4 8.9 91 0.7 NW 9 15 5 8 1021.0 1021.0 1.0
30/12:30am 10.4 8.8 8.8 90 0.8 NW 7 13 4 7 1020.9 1020.9 0.8
30/12:00am 10.1 8.6 8.5 90 0.8 NW 6 11 3 6 1021.1 1021.1 0.8
 
Date/Time
EST
Temp
°C
App
Temp
°C
Dew
Point
°C
Rel
Hum
%
Delta-T
°C
Wind Press
QNH
hPa
Press
MSL
hPa
Rain since
9am
mm
Dir  Spd
km/h
Gust
km/h
Spd
kts
Gust
kts
29/11:30pm 10.1 8.4 8.4 89 0.8 NW 7 13 4 7 1020.9 1020.9 0.4
29/11:00pm 10.4 8.4 8.5 88 0.9 WNW 9 19 5 10 1021.0 1021.0 0.4
29/10:30pm 10.2 8.2 8.5 89 0.8 WNW 9 17 5 9 1020.8 1020.8 0.4
29/10:00pm 11.0 8.7 9.1 88 0.9 WNW 11 20 6 11 1020.7 1020.7 0.4
29/09:30pm 11.2 8.5 8.8 85 1.2 NW 13 22 7 12 1020.4 1020.4 0.2
29/09:00pm 11.2 9.2 8.8 85 1.2 NW 9 17 5 9 1020.3 1020.3 0.2
29/08:30pm 11.7 8.7 9.1 84 1.3 WNW 15 22 8 12 1020.2 1020.2 0.2
29/08:00pm 11.0 8.6 8.8 86 1.1 WNW 11 20 6 11 1020.1 1020.1 0.2
29/07:30pm 10.5 8.9 8.8 89 0.8 WNW 7 17 4 9 1019.7 1019.7 0.2
29/07:00pm 10.8 8.9 9.1 89 0.8 WNW 9 15 5 8 1019.5 1019.5 0.2
29/06:30pm 11.3 9.2 9.6 89 0.9 WNW 11 19 6 10 1019.0 1019.0 0.2
29/06:00pm 11.4 7.7 9.5 88 1.0 WNW 19 26 10 14 1018.7 1018.7 0.2
29/05:30pm 11.8 8.0 9.9 88 1.0 WNW 20 28 11 15 1018.4 1018.4 0.2
29/05:00pm 12.2 8.6 9.9 86 1.2 W 19 24 10 13 1018.1 1018.1 0.2
29/04:30pm 12.2 8.8 10.4 89 0.9 W 19 26 10 14 1018.1 1018.1 0.2
29/04:00pm 12.4 7.5 10.1 86 1.2 WNW 26 37 14 20 1018.0 1018.0 0.2
29/03:30pm 12.9 8.9 10.3 84 1.3 WNW 22 32 12 17 1018.0 1018.0 0.0
29/03:00pm 13.5 9.8 10.1 80 1.8 WNW 20 32 11 17 1017.6 1017.6 0.0
29/02:30pm 13.9 8.7 10.1 78 2.0 WNW 28 43 15 23 1017.4 1017.4 0.0
29/02:00pm 13.6 8.4 10.2 80 1.8 WNW 28 43 15 23 1017.4 1017.4 0.0
29/01:30pm 13.6 9.0 9.5 76 2.1 WNW 24 41 13 22 1017.5 1017.5 0.0
29/01:01pm 14.0 8.7 9.8 76 2.2 WNW 28 48 15 26 1017.6 1017.6 0.0
29/01:00pm 14.0 9.1 9.8 76 2.2 WNW 26 48 14 26 1017.6 1017.6 0.0
29/12:43pm 14.0 8.6 9.4 74 2.4 WNW 28 48 15 26 1017.6 1017.6 0.0
29/12:30pm 13.9 8.9 9.7 76 2.2 WNW 26 43 14 23 1017.7 1017.7 0.0
29/12:00pm 12.8 8.2 9.6 81 1.6 WNW 24 43 13 23 1018.1 1018.1 0.0
29/11:30am 12.5 8.5 9.0 79 1.8 WNW 20 43 11 23 1018.3 1018.3 0.0
29/11:00am 12.6 7.0 8.7 77 1.9 NW 28 43 15 23 1018.2 1018.2 0.0
29/10:30am 12.3 6.7 8.6 78 1.8 NW 28 43 15 23 1018.4 1018.4 0.0
29/10:00am 11.9 7.4 8.6 80 1.6 NW 22 44 12 24 1018.6 1018.6 0.0
29/09:30am 11.8 6.5 8.5 80 1.6 NW 26 41 14 22 1018.8 1018.8 0.0
29/09:00am 12.3 7.2 7.8 74 2.2 NW 24 46 13 25 1018.6 1018.6 0.0
29/08:30am 11.9 7.2 7.6 75 2.1 NW 22 35 12 19 1018.5 1018.5 0.0
29/08:00am 11.7 6.9 7.4 75 2.1 NW 22 33 12 18 1018.5 1018.5 0.0
29/07:30am 11.7 6.8 7.0 73 2.2 NW 22 35 12 19 1018.3 1018.3 0.0
29/07:00am 11.7 6.8 7.0 73 2.2 NW 22 35 12 19 1018.3 1018.3 0.0
29/06:30am 11.6 6.7 6.9 73 2.2 NW 22 33 12 18 1018.2 1018.2 0.0
29/06:00am 11.6 7.3 6.9 73 2.2 NW 19 39 10 21 1018.0 1018.0 0.0
29/05:30am 11.4 6.5 6.9 74 2.1 NW 22 35 12 19 1018.4 1018.4 0.0
29/05:00am 11.6 7.1 6.9 73 2.2 NW 20 33 11 18 1018.4 1018.4 0.0
29/04:30am 11.6 7.3 6.9 73 2.2 NW 19 30 10 16 1018.3 1018.3 0.0
29/04:00am 11.5 7.0 7.0 74 2.1 NW 20 32 11 17 1018.4 1018.4 0.0
29/03:30am 11.3 6.9 7.2 76 2.0 NW 20 33 11 18 1018.6 1018.6 0.0
29/03:00am 11.5 7.1 7.2 75 2.1 NW 20 37 11 20 1019.0 1019.0 0.0
29/02:30am 11.4 7.2 7.3 76 2.0 NW 19 35 10 19 1019.2 1019.2 0.0
29/02:00am 11.2 7.0 7.5 78 1.8 NW 19 28 10 15 1019.4 1019.4 0.0
29/01:30am 11.6 7.3 7.1 74 2.2 NW 19 33 10 18 1019.5 1019.5 0.0
29/01:00am 11.8 7.3 6.9 72 2.3 NW 20 37 11 20 1019.6 1019.6 0.0
29/12:30am 12.1 7.1 6.6 69 2.6 NW 22 35 12 19 1019.6 1019.6 0.0
29/12:00am 12.1 7.1 6.6 69 2.6 NW 22 33 12 18 1019.9 1019.9 0.0
 
Date/Time
EST
Temp
°C
App
Temp
°C
Dew
Point
°C
Rel
Hum
%
Delta-T
°C
Wind Press
QNH
hPa
Press
MSL
hPa
Rain since
9am
mm
Dir  Spd
km/h
Gust
km/h
Spd
kts
Gust
kts
28/11:30pm 11.9 7.3 6.4 69 2.6 NW 20 32 11 17 1019.9 1019.9 0.0
28/11:00pm 12.1 7.1 6.4 68 2.7 NW 22 37 12 20 1020.1 1020.1 0.0
28/10:30pm 12.3 8.0 6.8 69 2.6 NW 19 32 10 17 1020.3 1020.3 0.0
28/10:00pm 12.3 7.7 6.6 68 2.7 NNW 20 32 11 17 1020.2 1020.2 0.0
28/09:30pm 12.2 7.6 6.7 69 2.6 NW 20 32 11 17 1020.7 1020.7 0.0
28/09:00pm 11.8 7.8 6.7 71 2.4 NNW 17 28 9 15 1020.9 1020.9 0.0
28/08:30pm 12.2 7.9 6.9 70 2.5 NNW 19 35 10 19 1021.0 1021.0 0.0
28/08:00pm 12.2 8.3 7.3 72 2.4 NW 17 26 9 14 1021.1 1021.1 0.0
28/07:30pm 12.7 9.3 7.8 72 2.4 NW 15 24 8 13 1021.2 1021.2 0.0
28/07:00pm 12.7 9.0 7.8 72 2.4 NW 17 28 9 15 1021.2 1021.2 0.0
28/06:30pm 12.4 9.9 8.3 76 2.0 WNW 11 20 6 11 1021.1 1021.1 0.0
28/06:00pm 12.4 9.9 8.3 76 2.0 WNW 11 22 6 12 1021.0 1021.0 0.0
28/05:30pm 12.4 9.8 7.9 74 2.2 NW 11 20 6 11 1020.8 1020.8 0.0
28/05:00pm 12.5 7.5 8.0 74 2.2 WNW 24 32 13 17 1020.7 1020.7 0.0
28/04:30pm 12.8 8.8 8.3 74 2.2 WNW 19 33 10 18 1020.3 1020.3 0.0
28/04:00pm 13.1 6.5 7.8 70 2.6 WNW 32 46 17 25 1020.4 1020.4 0.0
28/03:30pm 13.6 9.1 8.7 72 2.5 WNW 22 39 12 21 1020.2 1020.2 0.0
28/03:00pm 13.3 8.8 8.6 73 2.3 WNW 22 35 12 19 1020.1 1020.1 0.0
28/02:30pm 13.3 8.0 8.6 73 2.4 WNW 26 46 14 25 1019.9 1019.9 0.0
28/02:00pm 13.1 8.6 8.4 73 2.3 WNW 22 41 12 22 1020.0 1020.0 0.0
28/01:30pm 13.2 7.9 8.5 73 2.3 WNW 26 44 14 24 1020.2 1020.2 0.0
28/01:15pm 13.1 7.4 8.4 73 2.3 WNW 28 46 15 25 1020.2 1020.2 0.0
28/01:00pm 13.3 7.9 8.2 71 2.5 WNW 26 43 14 23 1020.2 1020.2 0.0
28/12:45pm 13.3 7.6 8.4 72 2.4 WNW 28 46 15 25 1020.3 1020.3 0.0
28/12:30pm 12.8 7.8 8.1 73 2.3 WNW 24 43 13 23 1020.5 1020.5 0.0
28/12:12pm 12.8 7.1 8.3 74 2.2 WNW 28 46 15 25 1020.6 1020.6 0.0
28/12:00pm 13.2 9.3 8.7 74 2.2 WNW 19 41 10 22 1020.9 1020.9 0.0
28/11:30am 12.8 8.0 8.7 76 2.0 WNW 24 43 13 23 1021.2 1021.2 0.0
28/11:00am 12.3 7.8 8.4 77 1.9 WNW 22 44 12 24 1021.4 1021.4 0.0
28/10:30am 12.2 7.0 8.7 79 1.7 WNW 26 46 14 25 1021.4 1021.4 0.0
28/10:00am 11.8 7.2 8.1 78 1.8 WNW 22 35 12 19 1021.3 1021.3 0.0
28/09:30am 11.4 6.7 7.7 78 1.8 WNW 22 39 12 21 1021.2 1021.2 0.0
28/09:00am 10.9 6.2 7.6 80 1.6 WNW 22 39 12 21 1021.1 1021.1 0.8

Other Formats:

Comma delimited format used in spreadsheet applications
http://www.bom.gov.au/fwo/IDV60801/IDV60801.94886.axf

JavaScript Object Notation format (JSON) in row-major order
http://www.bom.gov.au/fwo/IDV60801/IDV60801.94886.json